Time;durP1;ratioP1;P1;durP2;ratioP2;P2;SDS_P1;SDS_P2;PMS_P1;PMS_P2;Temp;Humidity;BMP_temperature;BMP_pressure;BME280_temperature;BME280_humidity;BME280_pressure;Samples;Min_cycle;Max_cycle;Signal;HPM_P1;HPM_P2
2022/10/03 00:02:02;;;;;;;17.13;2.78;;;12.90;99.90;;;;;;4963407;28;20106;-73
2022/10/03 00:04:57;;;;;;;15.77;2.97;;;12.80;99.90;;;;;;4967215;28;20089;-76
2022/10/03 00:07:53;;;;;;;10.10;2.13;;;12.80;99.90;;;;;;4954895;28;20030;-76
2022/10/03 00:10:31;;;;;;;19.60;3.20;;;12.80;99.90;;;;;;4946048;28;20023;-75
2022/10/03 00:13:04;;;;;;;14.32;2.63;;;12.80;99.90;;;;;;4961933;28;20023;-75
2022/10/03 00:15:39;;;;;;;;;;;12.70;99.90;;;;;;4964839;28;20027;-75
2022/10/03 00:18:22;;;;;;;14.32;2.67;;;12.70;99.90;;;;;;4963595;28;19929;-75
2022/10/03 00:21:25;;;;;;;12.60;2.67;;;12.70;99.90;;;;;;4966000;28;20027;-72
2022/10/03 00:24:05;;;;;;;10.98;2.53;;;12.70;99.90;;;;;;4966236;28;20453;-74
2022/10/03 00:26:43;;;;;;;11.45;2.83;;;12.60;99.90;;;;;;4964674;28;20043;-75
2022/10/03 00:29:20;;;;;;;10.25;2.33;;;12.60;99.90;;;;;;4964436;28;20031;-77
2022/10/03 00:32:10;;;;;;;17.67;2.80;;;12.60;99.90;;;;;;4965487;28;20027;-75
2022/10/03 00:34:42;;;;;;;15.05;2.92;;;12.60;99.90;;;;;;4966204;28;20031;-75
2022/10/03 00:37:28;;;;;;;12.98;2.88;;;12.60;99.90;;;;;;4963519;28;20030;-75
2022/10/03 00:39:59;;;;;;;25.90;3.08;;;12.60;99.90;;;;;;4964191;28;20027;-76
2022/10/03 00:42:32;;;;;;;16.10;2.47;;;12.50;99.90;;;;;;4965503;28;20102;-75
2022/10/03 00:45:01;;;;;;;16.10;2.88;;;12.50;99.90;;;;;;4959951;28;20019;-76
2022/10/03 00:47:53;;;;;;;13.95;2.17;;;12.60;99.90;;;;;;4966711;28;20400;-76
2022/10/03 00:50:22;;;;;;;8.57;2.03;;;12.50;99.90;;;;;;4962765;28;20055;-74
2022/10/03 00:53:04;;;;;;;15.30;2.60;;;12.50;99.90;;;;;;4960466;28;20058;-75
2022/10/03 00:55:42;;;;;;;16.95;2.75;;;12.50;99.90;;;;;;4965637;28;20030;-76
2022/10/03 00:58:41;;;;;;;16.63;3.00;;;12.40;99.90;;;;;;4963999;28;20038;-75
2022/10/03 01:01:34;;;;;;;14.75;2.50;;;12.40;99.90;;;;;;4958767;28;20027;-75
2022/10/03 01:04:21;;;;;;;10.93;2.28;;;12.40;99.90;;;;;;4949677;28;20350;-74
2022/10/03 01:07:03;;;;;;;12.55;3.13;;;12.40;99.90;;;;;;4949471;28;20027;-74
2022/10/03 01:09:53;;;;;;;20.17;2.88;;;12.40;99.90;;;;;;4959235;28;20421;-75
2022/10/03 01:12:31;;;;;;;20.75;3.28;;;12.40;99.90;;;;;;4954363;28;20034;-76
2022/10/03 01:15:20;;;;;;;16.52;3.72;;;12.40;99.90;;;;;;4961231;28;20050;-73
2022/10/03 01:18:10;;;;;;;14.75;2.55;;;12.40;99.90;;;;;;4945461;28;20337;-76
2022/10/03 01:21:08;;;;;;;12.68;3.80;;;12.30;99.90;;;;;;4960232;28;20038;-74
2022/10/03 01:23:58;;;;;;;7.25;2.83;;;12.30;99.90;;;;;;4952124;28;20035;-76
2022/10/03 01:26:39;;;;;;;12.32;3.10;;;12.20;99.90;;;;;;4947267;28;20102;-75
2022/10/03 01:32:27;;;;;;;19.02;3.10;;;12.10;99.90;;;;;;4961661;28;20071;-75
2022/10/03 01:35:23;;;;;;;19.70;3.35;;;12.10;99.90;;;;;;4920008;28;20078;-76
2022/10/03 01:38:01;;;;;;;10.15;3.10;;;12.10;99.90;;;;;;4931958;28;20043;-76
2022/10/03 01:40:53;;;;;;;12.32;3.67;;;12.10;99.90;;;;;;4945652;28;20027;-76
2022/10/03 01:43:30;;;;;;;16.58;3.30;;;12.10;99.90;;;;;;4952567;28;20046;-76
2022/10/03 01:46:01;;;;;;;12.45;2.85;;;12.00;99.90;;;;;;4958423;28;20352;-75
2022/10/03 01:48:55;;;;;;;12.38;3.20;;;12.00;99.90;;;;;;4944569;28;20030;-76
2022/10/03 01:51:39;;;;;;;13.85;3.17;;;12.00;99.90;;;;;;4953597;28;20059;-75
2022/10/03 01:54:28;;;;;;;14.95;3.05;;;12.00;99.90;;;;;;4965096;28;20046;-75
2022/10/03 01:57:10;;;;;;;14.32;3.42;;;12.00;99.90;;;;;;4962725;28;20019;-75
2022/10/03 01:59:41;;;;;;;13.70;3.53;;;12.00;99.90;;;;;;4961264;28;20035;-76
2022/10/03 02:02:31;;;;;;;20.35;4.00;;;11.90;99.90;;;;;;4966243;28;20019;-76
2022/10/03 02:05:23;;;;;;;13.65;3.30;;;11.90;99.90;;;;;;4959320;28;20015;-76
2022/10/03 02:08:04;;;;;;;13.00;4.35;;;11.90;99.90;;;;;;4947775;28;20047;-74
2022/10/03 02:11:03;;;;;;;11.60;3.92;;;11.80;99.90;;;;;;4947066;28;20035;-74
2022/10/03 02:13:35;;;;;;;17.90;4.32;;;11.80;99.90;;;;;;4963144;28;20027;-76
2022/10/03 02:16:41;;;;;;;19.63;5.13;;;11.80;99.90;;;;;;4962841;28;20019;-75
2022/10/03 02:19:21;;;;;;;16.05;4.78;;;11.80;99.90;;;;;;4965039;28;20149;-76
2022/10/03 02:21:52;;;;;;;14.75;4.88;;;11.80;99.90;;;;;;4965074;28;20031;-75
2022/10/03 02:24:27;;;;;;;17.73;4.95;;;11.80;99.90;;;;;;4966997;28;20106;-78
2022/10/03 02:27:19;;;;;;;13.68;4.68;;;11.80;99.90;;;;;;4961560;28;20024;-77
2022/10/03 02:29:48;;;;;;;13.73;5.10;;;11.70;99.90;;;;;;4969361;28;20094;-76
2022/10/03 02:32:55;;;;;;;16.90;5.70;;;11.70;99.90;;;;;;4948498;28;20516;-76
2022/10/03 02:36:03;;;;;;;14.90;4.75;;;11.70;99.90;;;;;;4966648;28;20034;-75
2022/10/03 02:38:34;;;;;;;22.42;5.72;;;11.70;99.90;;;;;;4964820;28;20117;-74
2022/10/03 02:41:03;;;;;;;16.15;5.25;;;11.70;99.90;;;;;;4948067;28;20428;-76
2022/10/03 02:43:47;;;;;;;19.20;5.20;;;11.70;99.90;;;;;;4963247;28;20023;-74
2022/10/03 02:46:50;;;;;;;16.73;5.65;;;11.70;99.90;;;;;;4967368;28;20033;-75
2022/10/03 02:49:34;;;;;;;13.55;5.22;;;11.60;99.90;;;;;;4943265;28;20062;-76
2022/10/03 02:52:41;;;;;;;14.65;4.97;;;11.60;99.90;;;;;;4964190;28;20081;-75
2022/10/03 02:55:38;;;;;;;10.48;5.10;;;11.60;99.90;;;;;;4963974;28;20023;-75
2022/10/03 02:58:32;;;;;;;18.05;5.45;;;11.60;99.90;;;;;;4963768;28;20129;-75
2022/10/03 03:01:31;;;;;;;15.82;5.85;;;11.50;99.90;;;;;;4961256;28;20023;-76
2022/10/03 03:04:24;;;;;;;23.63;5.93;;;11.50;99.90;;;;;;4964492;28;20027;-76
2022/10/03 03:07:08;;;;;;;23.83;5.32;;;11.50;99.90;;;;;;4967181;28;20014;-76
2022/10/03 03:10:05;;;;;;;24.08;5.82;;;11.50;99.90;;;;;;4966955;28;20076;-75
2022/10/03 03:12:52;;;;;;;13.55;5.53;;;11.50;99.90;;;;;;4966909;28;20451;-75
2022/10/03 03:15:45;;;;;;;19.88;5.25;;;11.50;99.90;;;;;;4964681;28;20621;-76
2022/10/03 03:18:45;;;;;;;11.75;5.03;;;11.40;99.90;;;;;;4962081;28;20122;-75
2022/10/03 03:21:19;;;;;;;18.67;6.18;;;11.40;99.90;;;;;;4965397;28;20087;-75
2022/10/03 03:24:00;;;;;;;16.10;5.45;;;11.30;99.90;;;;;;4967620;28;20019;-75
2022/10/03 03:26:42;;;;;;;12.98;5.05;;;11.30;99.90;;;;;;4964884;28;20057;-76
2022/10/03 03:29:14;;;;;;;13.75;6.15;;;11.20;99.90;;;;;;4967394;28;20109;-75
2022/10/03 03:31:56;;;;;;;14.77;4.97;;;11.20;99.90;;;;;;4964569;28;20054;-76
2022/10/03 03:34:41;;;;;;;18.42;6.18;;;11.20;99.90;;;;;;4963681;28;20555;-76
2022/10/03 03:37:30;;;;;;;17.90;5.28;;;11.20;99.90;;;;;;4969533;28;20025;-76
2022/10/03 03:40:15;;;;;;;22.27;5.82;;;11.20;99.90;;;;;;4962728;28;20030;-75
2022/10/03 03:43:03;;;;;;;16.30;5.80;;;11.20;99.90;;;;;;4965036;28;20067;-74
2022/10/03 03:45:43;;;;;;;24.00;6.50;;;11.20;99.90;;;;;;4966390;28;20085;-76
2022/10/03 03:48:20;;;;;;;10.55;4.97;;;11.20;99.90;;;;;;4963203;28;20069;-75
2022/10/03 03:51:04;;;;;;;11.93;5.07;;;11.10;99.90;;;;;;4964667;28;20035;-76
2022/10/03 03:53:59;;;;;;;9.60;4.38;;;11.00;99.90;;;;;;4961680;28;20777;-76
2022/10/03 03:56:53;;;;;;;8.52;4.03;;;11.00;99.90;;;;;;4953305;28;20035;-75
2022/10/03 03:59:41;;;;;;;11.20;5.07;;;10.90;99.90;;;;;;4965272;28;20452;-76
2022/10/03 04:02:06;;;;;;;9.73;4.68;;;10.80;99.90;;;;;;4965341;28;20110;-76
2022/10/03 04:05:11;;;;;;;12.65;4.30;;;10.80;99.90;;;;;;4965063;28;20027;-75
2022/10/03 04:08:11;;;;;;;9.15;4.20;;;10.80;99.90;;;;;;4966080;28;20027;-76
2022/10/03 04:10:50;;;;;;;9.15;3.80;;;10.80;99.90;;;;;;4966555;28;20023;-76
2022/10/03 04:13:43;;;;;;;16.05;4.40;;;10.70;99.90;;;;;;4962702;28;20038;-76
2022/10/03 04:19:29;;;;;;;7.65;3.35;;;10.70;99.90;;;;;;4964013;28;20105;-76
2022/10/03 04:22:02;;;;;;;13.10;3.90;;;10.70;99.90;;;;;;4953686;28;20929;-76
2022/10/03 04:24:46;;;;;;;16.15;3.20;;;10.60;99.90;;;;;;4966948;28;20486;-75
2022/10/03 04:27:49;;;;;;;15.27;3.20;;;10.50;99.90;;;;;;4959594;28;20587;-73
2022/10/03 04:30:17;;;;;;;6.18;2.67;;;10.50;99.90;;;;;;4960231;28;20054;-76
2022/10/03 04:33:06;;;;;;;7.65;3.00;;;10.50;99.90;;;;;;4962656;28;20073;-75
2022/10/03 04:35:50;;;;;;;13.45;2.75;;;10.50;99.90;;;;;;4963869;28;20066;-76
2022/10/03 04:38:37;;;;;;;5.97;2.88;;;10.50;99.90;;;;;;4945144;28;20536;-76
2022/10/03 04:41:07;;;;;;;8.38;2.80;;;10.50;99.90;;;;;;4964578;28;20026;-73
2022/10/03 04:43:57;;;;;;;12.57;4.00;;;10.40;99.90;;;;;;4963453;28;20027;-75
2022/10/03 04:46:48;;;;;;;12.55;3.25;;;10.40;99.90;;;;;;4964006;28;20401;-75
2022/10/03 04:49:34;;;;;;;11.65;3.10;;;10.40;99.90;;;;;;4961434;28;20023;-74
2022/10/03 04:52:24;;;;;;;6.15;3.78;;;10.40;99.90;;;;;;4961790;28;20084;-75
2022/10/03 04:55:01;;;;;;;9.57;3.45;;;10.30;99.90;;;;;;4948888;28;20036;-75
2022/10/03 04:57:34;;;;;;;6.30;3.05;;;10.20;99.90;;;;;;4948221;28;20024;-75
2022/10/03 05:00:32;;;;;;;6.82;3.33;;;10.20;99.90;;;;;;4969694;28;20032;-76
2022/10/03 05:03:21;;;;;;;6.22;3.05;;;10.20;99.90;;;;;;4948081;28;20031;-75
2022/10/03 05:05:53;;;;;;;12.27;3.80;;;10.10;99.90;;;;;;4966738;28;20019;-77
2022/10/03 05:08:42;;;;;;;8.77;3.78;;;10.10;99.90;;;;;;4964749;28;20026;-76
2022/10/03 05:11:13;;;;;;;10.65;4.47;;;10.10;99.90;;;;;;4962181;28;20329;-76
2022/10/03 05:13:50;;;;;;;7.80;3.28;;;10.10;99.90;;;;;;4963951;28;20031;-76
2022/10/03 05:16:27;;;;;;;8.48;3.25;;;10.00;99.90;;;;;;4963055;28;20073;-75
2022/10/03 05:19:21;;;;;;;8.80;3.33;;;10.00;99.90;;;;;;4962038;28;20575;-76
2022/10/03 05:21:55;;;;;;;10.15;4.70;;;10.00;99.90;;;;;;4962465;28;20026;-76
2022/10/03 05:24:40;;;;;;;15.70;4.90;;;10.00;99.90;;;;;;4968140;28;20023;-74
2022/10/03 05:27:39;;;;;;;17.60;4.07;;;10.10;99.90;;;;;;4947642;28;20022;-76
2022/10/03 05:30:17;;;;;;;7.57;4.05;;;10.00;99.90;;;;;;4967646;28;20030;-76
2022/10/03 05:33:00;;;;;;;17.85;5.00;;;10.00;99.90;;;;;;4949538;28;20034;-75
2022/10/03 05:35:44;;;;;;;9.85;5.03;;;10.00;99.90;;;;;;4965424;28;20023;-76
2022/10/03 05:38:12;;;;;;;12.65;5.57;;;10.00;99.90;;;;;;4946306;28;20035;-76
2022/10/03 05:40:59;;;;;;;11.57;5.38;;;10.00;99.90;;;;;;4961450;28;20027;-75
2022/10/03 05:43:43;;;;;;;11.85;5.20;;;10.00;99.90;;;;;;4961476;28;20054;-76
2022/10/03 05:46:13;;;;;;;18.48;5.53;;;10.00;99.90;;;;;;4960902;28;20027;-76
2022/10/03 05:48:48;;;;;;;12.77;5.55;;;10.00;99.90;;;;;;4975737;28;20062;-75
2022/10/03 05:51:38;;;;;;;13.07;5.60;;;10.00;99.90;;;;;;4982239;28;20027;-75
2022/10/03 05:54:15;;;;;;;12.52;5.90;;;10.00;99.90;;;;;;4979876;28;20456;-75
2022/10/03 05:57:06;;;;;;;19.52;5.85;;;10.00;99.90;;;;;;4978602;28;20114;-74
2022/10/03 05:59:54;;;;;;;14.32;5.95;;;10.00;99.90;;;;;;4963129;28;20449;-77
2022/10/03 06:03:09;;;;;;;18.10;5.40;;;10.00;99.90;;;;;;4964657;28;20031;-78
2022/10/03 06:06:07;;;;;;;10.60;5.53;;;10.00;99.90;;;;;;4939568;28;20081;-77
2022/10/03 06:08:53;;;;;;;9.77;4.97;;;10.10;99.90;;;;;;4961887;28;20349;-77
2022/10/03 06:11:57;;;;;;;13.70;5.28;;;10.10;99.90;;;;;;4960709;28;20023;-78
2022/10/03 06:14:42;;;;;;;10.43;4.18;;;10.20;99.90;;;;;;4958841;28;20018;-79
2022/10/03 06:17:29;;;;;;;11.10;4.47;;;10.20;99.90;;;;;;4963771;28;20027;-79
2022/10/03 06:20:05;;;;;;;11.75;4.40;;;10.20;99.90;;;;;;4960733;28;20081;-79
2022/10/03 06:23:01;;;;;;;8.10;4.25;;;10.30;99.90;;;;;;4962557;28;20031;-79
2022/10/03 06:25:58;;;;;;;12.95;4.00;;;10.30;99.90;;;;;;4947929;28;20449;-79
2022/10/03 06:28:52;;;;;;;7.75;3.72;;;10.40;99.90;;;;;;4957891;28;20106;-79
2022/10/03 06:31:55;;;;;;;5.40;3.33;;;10.40;99.90;;;;;;4957581;28;20055;-80
2022/10/03 06:34:40;;;;;;;13.82;4.93;;;10.50;99.90;;;;;;4962887;28;20045;-79
2022/10/03 06:37:43;;;;;;;9.20;4.28;;;10.50;99.90;;;;;;4958301;28;20034;-78
2022/10/03 06:40:33;;;;;;;14.23;5.57;;;10.50;99.90;;;;;;4961336;28;20027;-77
2022/10/03 06:43:28;;;;;;;9.23;4.95;;;10.60;99.90;;;;;;4960570;28;20031;-79
2022/10/03 06:46:19;;;;;;;8.90;4.82;;;10.60;99.90;;;;;;4964515;28;20030;-80
2022/10/03 06:49:06;;;;;;;13.45;5.28;;;10.70;99.90;;;;;;4960938;28;20016;-80
2022/10/03 06:51:46;;;;;;;17.17;7.20;;;10.80;99.90;;;;;;4965036;28;20027;-77
2022/10/03 06:54:43;;;;;;;14.40;5.38;;;10.80;99.90;;;;;;4956618;28;20019;-80
2022/10/03 06:57:34;;;;;;;13.20;5.53;;;10.80;99.90;;;;;;4965083;28;20022;-81
2022/10/03 07:00:18;;;;;;;9.27;5.50;;;10.90;99.90;;;;;;4963586;28;20073;-80
2022/10/03 07:02:44;;;;;;;12.27;5.85;;;11.00;99.90;;;;;;4941268;28;20384;-78
2022/10/03 07:05:41;;;;;;;23.27;6.50;;;11.10;99.90;;;;;;4968344;28;20037;-74
2022/10/03 07:08:29;;;;;;;21.52;6.25;;;11.20;99.90;;;;;;4969353;28;20085;-78
2022/10/03 07:11:09;;;;;;;12.95;5.75;;;11.40;99.90;;;;;;4967688;28;20061;-78
2022/10/03 07:13:49;;;;;;;15.77;6.32;;;11.50;99.90;;;;;;4965875;28;20035;-79
2022/10/03 07:16:30;;;;;;;20.35;6.65;;;11.60;99.90;;;;;;4963475;28;20484;-80
2022/10/03 07:19:26;;;;;;;15.95;7.05;;;11.70;99.90;;;;;;4960165;28;20046;-78
2022/10/03 07:22:31;;;;;;;13.43;5.35;;;11.80;99.90;;;;;;4943005;28;20420;-76
2022/10/03 07:25:25;;;;;;;13.63;6.10;;;11.90;99.90;;;;;;4943035;28;20035;-79
2022/10/03 07:28:01;;;;;;;;;;;12.10;99.90;;;;;;4963011;28;20091;-80
2022/10/03 07:30:44;;;;;;;90.40;31.92;;;12.20;99.90;;;;;;4958959;28;19914;-76
2022/10/03 07:33:35;;;;;;;22.67;7.53;;;12.30;99.90;;;;;;4962263;28;20039;-81
2022/10/03 07:39:54;;;;;;;21.42;6.25;;;12.60;99.90;;;;;;4963434;28;20551;-79
2022/10/03 07:42:44;;;;;;;10.68;6.20;;;12.80;99.90;;;;;;4963247;28;20039;-78
2022/10/03 07:45:40;;;;;;;17.92;6.30;;;13.00;99.90;;;;;;4965587;28;20653;-82
2022/10/03 07:48:33;;;;;;;17.45;6.05;;;13.10;99.90;;;;;;4958559;28;20356;-79
2022/10/03 07:51:07;;;;;;;11.95;6.20;;;13.20;99.90;;;;;;4956449;28;20464;-80
2022/10/03 07:54:12;;;;;;;15.48;5.28;;;13.30;99.90;;;;;;4965742;28;20042;-80
2022/10/03 07:57:03;;;;;;;22.88;5.55;;;13.50;99.90;;;;;;4974462;28;20061;-77
2022/10/03 07:59:44;;;;;;;11.77;5.03;;;13.50;99.90;;;;;;4962994;28;20038;-80
2022/10/03 08:02:21;;;;;;;14.63;5.85;;;13.60;99.90;;;;;;4965809;28;20053;-78
2022/10/03 08:05:04;;;;;;;14.48;5.10;;;13.80;99.90;;;;;;4968535;28;20475;-78
2022/10/03 08:07:38;;;;;;;13.80;5.43;;;14.00;99.90;;;;;;4962035;28;20496;-79
2022/10/03 08:10:15;;;;;;;11.43;5.38;;;14.20;99.90;;;;;;4966886;28;20113;-77
2022/10/03 08:13:12;;;;;;;14.05;5.30;;;14.40;99.90;;;;;;4968050;28;20023;-78
2022/10/03 08:15:46;;;;;;;14.20;5.13;;;14.50;99.90;;;;;;4961576;28;20030;-79
2022/10/03 08:18:21;;;;;;;17.48;5.28;;;14.80;99.90;;;;;;4962373;28;20070;-78
2022/10/03 08:20:59;;;;;;;19.73;5.50;;;14.80;99.90;;;;;;4959051;28;20035;-75
2022/10/03 08:23:50;;;;;;;17.42;5.00;;;14.90;99.90;;;;;;4962632;28;20350;-79
2022/10/03 08:26:19;;;;;;;14.82;5.05;;;15.10;99.90;;;;;;4967717;28;20090;-79
2022/10/03 08:29:07;;;;;;;12.85;5.10;;;15.30;99.90;;;;;;4964402;28;20014;-77
2022/10/03 08:32:00;;;;;;;15.75;4.57;;;15.60;99.90;;;;;;4965797;28;20415;-77
2022/10/03 08:34:26;;;;;;;17.25;5.22;;;15.70;99.90;;;;;;4962954;28;20026;-79
2022/10/03 08:37:47;;;;;;;11.45;4.65;;;15.90;99.90;;;;;;4960958;28;20117;-78
2022/10/03 08:40:17;;;;;;;22.77;5.03;;;16.20;99.90;;;;;;4872450;29;20084;-78
2022/10/03 08:43:16;;;;;;;20.00;4.25;;;16.60;99.90;;;;;;4950453;28;20050;-76
2022/10/03 08:46:06;;;;;;;11.80;4.57;;;16.90;99.90;;;;;;4965021;28;20046;-78
2022/10/03 08:49:05;;;;;;;16.58;3.75;;;17.50;99.90;;;;;;4963007;28;20031;-77
2022/10/03 08:51:53;;;;;;;12.77;3.47;;;18.00;99.90;;;;;;4962691;28;20027;-77
2022/10/03 08:54:32;;;;;;;10.90;3.72;;;18.50;99.90;;;;;;4946185;28;20030;-76
2022/10/03 08:57:19;;;;;;;12.32;4.55;;;19.20;99.90;;;;;;4964868;28;20672;-81
2022/10/03 09:00:14;;;;;;;14.52;4.05;;;20.10;99.90;;;;;;4963813;28;20026;-82
2022/10/03 09:02:42;;;;;;;11.57;4.25;;;20.60;99.90;;;;;;4963539;28;20063;-77
2022/10/03 09:05:26;;;;;;;12.48;4.30;;;21.20;99.90;;;;;;4965309;28;20026;-77
2022/10/03 09:07:55;;;;;;;13.95;3.97;;;21.30;99.90;;;;;;4961803;28;20445;-80
2022/10/03 09:10:46;;;;;;;8.68;3.60;;;21.20;99.10;;;;;;4962714;28;20240;-81
2022/10/03 09:13:41;;;;;;;9.40;3.88;;;20.80;99.40;;;;;;4943864;28;20025;-74
2022/10/03 09:16:22;;;;;;;15.60;3.90;;;20.90;99.20;;;;;;4958114;28;20054;-75
2022/10/03 09:19:00;;;;;;;722.97;357.23;;;21.50;98.80;;;;;;4962862;28;20039;-73
2022/10/03 09:21:56;;;;;;;48.85;20.20;;;22.20;97.70;;;;;;4962083;28;20456;-74
2022/10/03 09:24:43;;;;;;;22.17;6.07;;;22.80;95.80;;;;;;4961497;28;20363;-75
2022/10/03 09:27:44;;;;;;;14.25;3.80;;;23.40;94.40;;;;;;4960380;28;20041;-75
2022/10/03 09:30:22;;;;;;;10.90;3.50;;;23.80;94.60;;;;;;4968088;28;20023;-79
2022/10/03 09:33:32;;;;;;;13.43;4.03;;;24.20;91.10;;;;;;4946853;28;20353;-77
2022/10/03 09:36:12;;;;;;;14.75;3.40;;;24.40;90.40;;;;;;4908715;28;20755;-74
2022/10/03 09:39:03;;;;;;;12.50;2.90;;;23.60;89.50;;;;;;4963496;28;20031;-78
2022/10/03 09:42:00;;;;;;;10.40;2.90;;;22.80;91.00;;;;;;4961918;28;20617;-78
2022/10/03 09:45:03;;;;;;;10.90;2.90;;;22.30;90.40;;;;;;4961828;28;20023;-78
2022/10/03 09:48:02;;;;;;;9.00;2.40;;;21.90;91.90;;;;;;4963277;28;20088;-78
2022/10/03 09:51:00;;;;;;;225.85;105.22;;;22.10;92.50;;;;;;4951391;28;20130;-74
2022/10/03 09:54:01;;;;;;;103.93;40.10;;;21.80;91.40;;;;;;4951135;28;20039;-79
2022/10/03 09:56:48;;;;;;;13.52;3.35;;;21.70;93.30;;;;;;4963045;28;20026;-78
2022/10/03 09:59:20;;;;;;;13.52;3.35;;;21.50;92.80;;;;;;4967632;28;20034;-76
2022/10/03 10:01:46;;;;;;;18.33;3.80;;;21.50;93.10;;;;;;4960594;28;20023;-78
2022/10/03 10:04:38;;;;;;;7.82;2.50;;;21.80;93.80;;;;;;4962232;28;20444;-76
2022/10/03 10:07:16;;;;;;;9.20;2.70;;;22.20;91.70;;;;;;4966289;28;20467;-78
2022/10/03 10:10:15;;;;;;;14.45;2.60;;;22.50;91.10;;;;;;4965826;28;20357;-78
2022/10/03 10:13:04;;;;;;;10.05;1.92;;;21.80;91.60;;;;;;4962011;28;20041;-78
2022/10/03 10:16:08;;;;;;;10.23;1.70;;;22.00;90.40;;;;;;4949073;28;20528;-76
2022/10/03 10:18:49;;;;;;;;;;;22.00;90.70;;;;;;4961370;28;20042;-77
2022/10/03 10:21:45;;;;;;;11.32;1.58;;;21.70;89.10;;;;;;4947016;28;19917;-76
2022/10/03 10:24:45;;;;;;;50.28;18.95;;;21.70;91.20;;;;;;4966229;28;20051;-72
2022/10/03 10:27:29;;;;;;;9.90;1.60;;;22.00;92.50;;;;;;4950324;28;20042;-77
2022/10/03 10:30:03;;;;;;;12.18;1.80;;;22.00;87.80;;;;;;4958937;28;20081;-81
2022/10/03 10:33:07;;;;;;;14.02;2.20;;;22.00;90.60;;;;;;4963019;28;20097;-78
2022/10/03 10:35:50;;;;;;;;;;;22.30;88.30;;;;;;4962122;28;20452;-78
2022/10/03 10:38:26;;;;;;;6.28;1.75;;;22.30;87.80;;;;;;4961617;28;20064;-78
2022/10/03 10:41:29;;;;;;;11.82;1.52;;;22.70;84.60;;;;;;4968342;28;20089;-76
2022/10/03 10:44:19;;;;;;;10.25;2.15;;;22.70;84.00;;;;;;4968427;28;20121;-77
2022/10/03 10:47:18;;;;;;;5.32;2.22;;;22.40;85.60;;;;;;4962935;28;20364;-76
2022/10/03 10:50:14;;;;;;;13.32;2.25;;;22.10;87.10;;;;;;4969430;28;20031;-78
2022/10/03 10:53:17;;;;;;;12.25;2.30;;;22.70;88.10;;;;;;4964612;28;20031;-79
2022/10/03 10:56:26;;;;;;;9.23;2.05;;;22.70;84.70;;;;;;4968616;28;20359;-73
2022/10/03 10:59:21;;;;;;;11.50;1.80;;;22.60;86.30;;;;;;4967543;28;20073;-78
2022/10/03 11:01:58;;;;;;;8.52;1.90;;;22.90;85.80;;;;;;4951197;28;20034;-78
2022/10/03 11:04:43;;;;;;;6.20;2.30;;;23.40;84.10;;;;;;4963133;28;20027;-76
2022/10/03 11:07:30;;;;;;;14.43;2.20;;;23.40;81.10;;;;;;4964593;28;20037;-76
2022/10/03 11:10:43;;;;;;;9.10;2.05;;;23.30;83.80;;;;;;4964639;28;20030;-78
2022/10/03 11:13:37;;;;;;;12.48;2.33;;;23.30;82.40;;;;;;4932268;28;20039;-76
2022/10/03 11:16:53;;;;;;;13.77;2.33;;;23.30;82.20;;;;;;4963421;28;20353;-77
2022/10/03 11:19:34;;;;;;;11.38;2.33;;;22.70;83.50;;;;;;4963000;28;20089;-76
2022/10/03 11:22:34;;;;;;;8.27;1.40;;;22.50;82.70;;;;;;4965299;28;20070;-77
2022/10/03 11:25:21;;;;;;;6.18;1.75;;;22.60;83.60;;;;;;4964183;28;20109;-77
2022/10/03 11:28:25;;;;;;;7.85;1.48;;;22.90;79.40;;;;;;4964827;28;20109;-77
2022/10/03 11:31:10;;;;;;;9.63;1.65;;;23.20;80.70;;;;;;4967729;28;21299;-77
2022/10/03 11:34:13;;;;;;;6.07;1.75;;;23.10;80.30;;;;;;4968501;28;20086;-76
2022/10/03 11:37:22;;;;;;;15.63;2.05;;;23.20;79.60;;;;;;4948567;28;20023;-78
2022/10/03 11:40:00;;;;;;;6.30;1.73;;;23.50;80.90;;;;;;4967718;28;20046;-75
2022/10/03 11:42:46;;;;;;;9.07;1.80;;;23.50;78.10;;;;;;4965396;28;20103;-76
2022/10/03 11:45:25;;;;;;;13.05;1.85;;;23.00;79.00;;;;;;4968417;28;20376;-76
2022/10/03 11:47:51;;;;;;;6.70;1.73;;;22.70;80.20;;;;;;4968623;28;20110;-78
2022/10/03 11:50:55;;;;;;;6.05;1.70;;;22.50;81.30;;;;;;4967363;28;20110;-75
2022/10/03 11:53:20;;;;;;;8.38;1.70;;;22.40;77.80;;;;;;4946353;28;20038;-74
2022/10/03 11:55:54;;;;;;;5.05;1.73;;;22.70;79.80;;;;;;4963040;28;20647;-75
2022/10/03 11:58:51;;;;;;;8.02;1.48;;;22.90;76.80;;;;;;4966689;28;20034;-76
2022/10/03 12:01:32;;;;;;;5.10;1.13;;;23.20;77.60;;;;;;4970065;28;20727;-76
2022/10/03 12:04:22;;;;;;;9.95;1.67;;;23.70;76.30;;;;;;4947183;28;20018;-78
2022/10/03 12:10:22;;;;;;;25.30;10.85;;;24.90;73.60;;;;;;4962908;28;20025;-75
2022/10/03 12:12:53;;;;;;;5.72;1.58;;;24.30;72.80;;;;;;4915609;29;20023;-76
2022/10/03 12:15:38;;;;;;;4.75;1.30;;;24.30;73.40;;;;;;4928477;29;20127;-73
2022/10/03 12:18:16;;;;;;;13.50;1.73;;;23.80;72.30;;;;;;4953865;28;20051;-77
2022/10/03 12:21:05;;;;;;;7.40;1.65;;;23.60;73.60;;;;;;4964752;28;20042;-76
2022/10/03 12:23:52;;;;;;;6.00;1.48;;;23.80;74.30;;;;;;4960123;28;20031;-77
2022/10/03 12:26:46;;;;;;;10.18;1.52;;;24.10;72.60;;;;;;4964273;28;20097;-74
2022/10/03 12:29:17;;;;;;;5.60;2.03;;;24.20;72.70;;;;;;4964272;28;20078;-75
2022/10/03 12:32:01;;;;;;;7.78;1.42;;;24.50;70.50;;;;;;4967172;28;20041;-74
2022/10/03 12:34:48;;;;;;;8.43;1.73;;;24.70;68.60;;;;;;4965827;28;20503;-76
2022/10/03 12:37:17;;;;;;;5.85;1.88;;;24.50;70.70;;;;;;4965861;28;20035;-74
2022/10/03 12:39:56;;;;;;;6.88;1.58;;;24.60;72.00;;;;;;4964597;28;20031;-76
2022/10/03 12:42:37;;;;;;;6.68;1.67;;;24.80;70.00;;;;;;4967286;28;20038;-74
2022/10/03 12:45:03;;;;;;;7.05;1.48;;;24.40;70.40;;;;;;4963313;28;20046;-75
2022/10/03 12:48:15;;;;;;;5.47;1.45;;;23.70;71.20;;;;;;4964200;28;20031;-75
2022/10/03 12:50:55;;;;;;;7.75;1.90;;;23.00;73.30;;;;;;4933443;28;20039;-75
2022/10/03 12:53:24;;;;;;;7.05;2.53;;;22.60;76.80;;;;;;4965084;28;20444;-72
2022/10/03 12:56:29;;;;;;;6.63;1.50;;;22.40;75.70;;;;;;4962652;28;20027;-76
2022/10/03 12:59:03;;;;;;;7.20;1.65;;;21.90;76.00;;;;;;4963305;28;20031;-74
2022/10/03 13:01:52;;;;;;;5.78;1.67;;;21.80;76.80;;;;;;4969841;28;20027;-78
2022/10/03 13:04:18;;;;;;;6.82;1.60;;;21.30;77.80;;;;;;4967941;28;20022;-75
2022/10/03 13:06:57;;;;;;;6.25;1.67;;;20.90;81.00;;;;;;4955823;28;20023;-73
2022/10/03 13:09:44;;;;;;;7.80;1.70;;;20.80;81.10;;;;;;4966153;28;20589;-75
2022/10/03 13:12:38;;;;;;;9.70;1.60;;;20.50;82.00;;;;;;4971616;28;20031;-78
2022/10/03 13:15:43;;;;;;;155.13;69.40;;;20.20;83.60;;;;;;4965837;28;20027;-77
2022/10/03 13:18:37;;;;;;;5.88;1.88;;;19.90;84.50;;;;;;4968704;28;20343;-80
2022/10/03 13:21:17;;;;;;;5.53;1.25;;;19.70;85.40;;;;;;4969181;28;20020;-76
2022/10/03 13:23:56;;;;;;;9.23;1.70;;;19.50;87.10;;;;;;4968981;28;20053;-80
2022/10/03 13:27:01;;;;;;;7.13;1.52;;;19.50;87.00;;;;;;4970474;28;20113;-77
2022/10/03 13:29:39;;;;;;;4.95;1.02;;;19.50;87.30;;;;;;4879097;29;20056;-75
2022/10/03 13:32:19;;;;;;;3.20;1.10;;;19.40;87.50;;;;;;4954478;28;20034;-75
2022/10/03 13:34:57;;;;;;;5.43;1.60;;;19.40;87.40;;;;;;4964526;28;20379;-74
2022/10/03 13:37:51;;;;;;;3.88;1.30;;;19.30;87.50;;;;;;4946354;28;20072;-75
2022/10/03 13:40:18;;;;;;;9.23;1.17;;;19.40;86.60;;;;;;4969417;28;20110;-71
2022/10/03 13:42:52;;;;;;;7.93;1.42;;;19.40;86.40;;;;;;4974221;28;20028;-76
2022/10/03 13:45:27;;;;;;;11.07;1.40;;;19.30;87.20;;;;;;4968249;28;20023;-76
2022/10/03 13:48:06;;;;;;;3.97;1.08;;;19.30;87.60;;;;;;4968735;28;20026;-75
2022/10/03 13:51:00;;;;;;;3.05;1.33;;;19.30;88.40;;;;;;4956044;28;20499;-76
2022/10/03 13:53:51;;;;;;;4.95;1.20;;;19.30;88.40;;;;;;4968008;28;20110;-72
2022/10/03 13:56:36;;;;;;;6.47;1.50;;;19.50;87.30;;;;;;4952639;28;20118;-73
2022/10/03 13:59:37;;;;;;;11.90;1.42;;;19.40;87.10;;;;;;4954075;28;20046;-76
2022/10/03 14:02:20;;;;;;;2.92;1.10;;;19.50;88.10;;;;;;4970844;28;20031;-78
2022/10/03 14:05:10;;;;;;;5.70;1.17;;;19.80;86.50;;;;;;4964943;28;20030;-74
2022/10/03 14:08:04;;;;;;;5.80;1.67;;;20.00;86.00;;;;;;4958675;28;20058;-74
2022/10/03 14:10:36;;;;;;;22.02;9.00;;;20.80;84.80;;;;;;4945652;28;20102;-71
2022/10/03 14:13:12;;;;;;;7.95;1.42;;;21.90;80.30;;;;;;4950686;28;20023;-79
2022/10/03 14:16:09;;;;;;;4.38;1.35;;;22.10;78.30;;;;;;4970646;28;20031;-77
2022/10/03 14:19:08;;;;;;;6.25;1.23;;;22.00;78.10;;;;;;4953969;28;20046;-77
2022/10/03 14:21:52;;;;;;;4.80;1.13;;;21.90;79.80;;;;;;4965944;28;20028;-78
2022/10/03 14:24:19;;;;;;;5.45;1.52;;;22.20;78.60;;;;;;4966594;28;20019;-77
2022/10/03 14:27:10;;;;;;;5.93;1.40;;;22.40;78.10;;;;;;4965685;28;20101;-78
2022/10/03 14:29:51;;;;;;;6.80;1.45;;;22.30;76.90;;;;;;4967207;28;20035;-75
2022/10/03 14:32:22;;;;;;;6.80;1.60;;;22.20;78.20;;;;;;4966605;28;20042;-77